createdAt,value
2023-02-06T00:00:31.750Z,66.77
2023-02-06T00:02:58.269Z,61.10
2023-02-06T00:05:24.779Z,65.03
2023-02-06T00:07:51.366Z,66.23
2023-02-06T00:10:17.852Z,66.50
2023-02-06T00:12:44.360Z,63.83
2023-02-06T00:15:10.871Z,76.80
2023-02-06T00:17:37.767Z,75.43
2023-02-06T00:20:05.112Z,81.17
2023-02-06T00:22:31.678Z,71.73
2023-02-06T00:24:58.218Z,63.27
2023-02-06T00:27:24.730Z,57.43
2023-02-06T00:29:51.321Z,66.63
2023-02-06T00:32:17.926Z,62.03
2023-02-06T00:34:44.479Z,61.10
2023-02-06T00:37:11.084Z,63.53
2023-02-06T00:39:37.572Z,57.83
2023-02-06T00:42:04.109Z,47.13
2023-02-06T00:44:30.619Z,51.20
2023-02-06T00:46:58.862Z,61.10
2023-02-06T00:49:25.352Z,60.17
2023-02-06T00:51:51.895Z,50.10
2023-02-06T00:54:20.895Z,57.30
2023-02-06T00:56:47.807Z,58.27
2023-02-06T00:59:14.375Z,57.97
2023-02-06T01:01:40.898Z,56.40
2023-02-06T01:04:07.439Z,58.80
2023-02-06T01:06:34.208Z,48.60
2023-02-06T01:09:00.708Z,57.17
2023-02-06T01:11:27.657Z,47.50
2023-02-06T01:13:54.169Z,48.23
2023-02-06T01:16:21.688Z,45.33
2023-02-06T01:18:48.399Z,45.37
2023-02-06T01:21:15.697Z,46.63
2023-02-06T01:23:42.325Z,48.73
2023-02-06T01:26:11.077Z,43.27
2023-02-06T01:28:37.968Z,44.67
2023-02-06T01:31:17.825Z,42.00
2023-02-06T01:33:44.624Z,41.27
2023-02-06T01:36:11.249Z,42.63
2023-02-06T01:38:37.895Z,38.33
2023-02-06T01:41:04.520Z,44.77
2023-02-06T01:43:33.067Z,39.73
2023-02-06T01:45:59.579Z,41.23
2023-02-06T01:48:36.471Z,36.43
2023-02-06T01:51:03.307Z,40.83
2023-02-06T01:53:29.928Z,40.73
2023-02-06T01:55:56.543Z,46.20
2023-02-06T01:58:24.866Z,41.13
2023-02-06T02:00:51.456Z,42.07
2023-02-06T02:03:18.015Z,46.77
2023-02-06T02:05:44.526Z,47.87
2023-02-06T02:08:31.257Z,45.43
2023-02-06T02:10:58.968Z,52.03
2023-02-06T02:13:25.442Z,43.93
2023-02-06T02:15:59.103Z,48.87
2023-02-06T02:18:28.602Z,48.17
2023-02-06T02:21:01.229Z,47.90
2023-02-06T02:23:30.796Z,55.40
2023-02-06T02:26:04.403Z,52.23
2023-02-06T02:28:37.341Z,47.13
2023-02-06T02:31:03.875Z,49.10
2023-02-06T02:33:49.185Z,50.37
2023-02-06T02:36:30.662Z,46.77
2023-02-06T02:39:29.543Z,42.17
2023-02-06T02:42:00.528Z,43.97
2023-02-06T02:44:27.519Z,44.80
2023-02-06T02:46:54.407Z,47.70
2023-02-06T02:49:22.040Z,46.80
2023-02-06T02:51:48.561Z,47.13
2023-02-06T02:54:15.090Z,42.10
2023-02-06T02:56:41.598Z,46.10
2023-02-06T02:59:23.874Z,44.53
2023-02-06T03:01:53.190Z,43.73
2023-02-06T03:04:21.171Z,44.53
2023-02-06T03:06:47.632Z,45.33
2023-02-06T03:09:20.213Z,45.80
2023-02-06T03:11:49.751Z,43.07
2023-02-06T03:14:19.419Z,41.10
2023-02-06T03:16:46.433Z,51.47
2023-02-06T03:19:24.283Z,49.50
2023-02-06T03:21:50.816Z,49.83
2023-02-06T03:24:18.306Z,43.57
2023-02-06T03:26:45.244Z,54.60
2023-02-06T03:29:12.483Z,60.03
2023-02-06T03:31:46.053Z,57.23
2023-02-06T03:34:14.340Z,55.87
2023-02-06T03:36:40.939Z,53.57
2023-02-06T03:39:07.426Z,52.27
2023-02-06T03:41:34.806Z,49.70
2023-02-06T03:44:01.318Z,46.30
2023-02-06T03:46:28.103Z,44.97
2023-02-06T03:48:56.226Z,52.60
2023-02-06T03:51:25.024Z,44.37
2023-02-06T03:53:51.867Z,49.37
2023-02-06T03:56:44.648Z,47.80
2023-02-06T03:59:11.162Z,47.80
2023-02-06T04:01:45.667Z,56.67
2023-02-06T04:04:14.382Z,61.43
2023-02-06T04:06:40.941Z,62.47
2023-02-06T04:09:07.473Z,66.60
2023-02-06T04:11:33.986Z,71.37
2023-02-06T04:14:00.463Z,64.67
2023-02-06T04:16:27.015Z,67.47
2023-02-06T04:18:53.949Z,59.57
2023-02-06T04:21:20.434Z,72.50
2023-02-06T04:23:46.949Z,55.17
2023-02-06T04:26:13.431Z,60.50
2023-02-06T04:28:39.927Z,61.17
2023-02-06T04:31:06.566Z,57.43
2023-02-06T04:33:33.199Z,47.70
2023-02-06T04:35:59.704Z,54.80
2023-02-06T04:38:26.272Z,52.37
2023-02-06T04:40:52.755Z,54.80
2023-02-06T04:43:19.270Z,49.57
2023-02-06T04:45:46.575Z,50.03
2023-02-06T04:48:13.076Z,54.10
2023-02-06T04:50:39.566Z,51.33
2023-02-06T04:53:06.048Z,58.63
2023-02-06T04:55:32.568Z,49.60
2023-02-06T04:57:59.082Z,53.30
2023-02-06T05:00:25.626Z,55.27
2023-02-06T05:02:52.210Z,48.07
2023-02-06T05:05:18.863Z,51.87
2023-02-06T05:07:45.376Z,51.60
2023-02-06T05:10:11.969Z,52.73
2023-02-06T05:12:38.470Z,49.70
2023-02-06T05:15:05.091Z,45.83
2023-02-06T05:17:31.717Z,49.27
2023-02-06T05:19:58.626Z,51.17
2023-02-06T05:22:25.190Z,48.23
2023-02-06T05:24:51.681Z,54.47
2023-02-06T05:27:18.213Z,48.47
2023-02-06T05:29:44.699Z,60.37
2023-02-06T05:32:11.258Z,61.53
2023-02-06T05:34:37.748Z,58.03
2023-02-06T05:37:04.234Z,53.27
2023-02-06T05:39:30.845Z,55.60
2023-02-06T05:41:57.373Z,54.13
2023-02-06T05:44:23.944Z,61.97
2023-02-06T05:46:50.441Z,171.70
2023-02-06T05:49:16.991Z,487.43
2023-02-06T05:51:43.503Z,417.47
2023-02-06T05:54:10.077Z,203.67
2023-02-06T05:56:36.565Z,117.50
2023-02-06T05:59:03.052Z,67.37
2023-02-06T06:01:29.633Z,62.17
2023-02-06T06:03:56.378Z,67.57
2023-02-06T06:06:22.947Z,64.97
2023-02-06T06:08:49.479Z,70.33
2023-02-06T06:11:16.034Z,74.77
2023-02-06T06:13:42.571Z,57.47
2023-02-06T06:16:09.116Z,58.83
2023-02-06T06:18:35.636Z,62.57
2023-02-06T06:21:02.170Z,70.40
2023-02-06T06:23:28.779Z,64.70
2023-02-06T06:25:55.258Z,63.93
2023-02-06T06:28:21.756Z,67.37
2023-02-06T06:30:48.257Z,64.47
2023-02-06T06:33:16.571Z,71.43
2023-02-06T06:35:43.080Z,66.07
2023-02-06T06:38:09.590Z,69.10
2023-02-06T06:40:36.097Z,71.63
2023-02-06T06:43:02.641Z,63.33
2023-02-06T06:45:29.179Z,73.13
2023-02-06T06:47:55.761Z,73.93
2023-02-06T06:50:22.248Z,67.33
2023-02-06T06:52:48.839Z,72.80
2023-02-06T06:55:15.514Z,68.70
2023-02-06T06:57:42.071Z,80.37
2023-02-06T07:00:09.424Z,72.73
2023-02-06T07:02:35.902Z,75.53
2023-02-06T07:05:02.435Z,71.67
2023-02-06T07:07:28.961Z,73.07
2023-02-06T07:09:55.620Z,66.93
2023-02-06T07:12:22.233Z,64.10
2023-02-06T07:14:48.822Z,51.77
2023-02-06T07:17:15.310Z,53.77
2023-02-06T07:19:41.820Z,56.60
2023-02-06T07:22:08.337Z,55.37
2023-02-06T07:24:34.979Z,55.67
2023-02-06T07:27:01.679Z,50.47
2023-02-06T07:29:28.151Z,47.73
2023-02-06T07:31:54.820Z,47.17
2023-02-06T07:34:21.413Z,48.57
2023-02-06T07:36:47.905Z,45.27
2023-02-06T07:39:14.473Z,49.20
2023-02-06T07:41:41.116Z,45.37
2023-02-06T07:44:07.651Z,47.97
2023-02-06T07:46:34.770Z,41.43
2023-02-06T07:49:01.330Z,41.20
2023-02-06T07:51:27.844Z,47.90
2023-02-06T07:53:54.359Z,36.57
2023-02-06T07:56:21.175Z,41.03
2023-02-06T07:58:51.331Z,44.60
2023-02-06T08:01:18.075Z,48.67
2023-02-06T08:03:44.764Z,50.47
2023-02-06T08:06:11.926Z,44.97
2023-02-06T08:08:38.479Z,39.90
2023-02-06T08:11:08.619Z,36.07
2023-02-06T08:13:35.283Z,26.77
2023-02-06T08:16:06.040Z,36.83
2023-02-06T08:18:32.620Z,34.43
2023-02-06T08:21:06.709Z,33.70
2023-02-06T08:23:33.322Z,36.17
2023-02-06T08:26:07.891Z,28.77
2023-02-06T08:28:37.411Z,34.37
2023-02-06T08:31:14.503Z,31.50
2023-02-06T08:33:41.235Z,34.70
2023-02-06T08:36:07.980Z,30.43
2023-02-06T08:38:34.514Z,29.03
2023-02-06T08:41:01.096Z,30.63
2023-02-06T08:43:27.631Z,30.90
2023-02-06T08:45:56.176Z,22.87
2023-02-06T08:48:22.898Z,23.93
2023-02-06T08:50:49.388Z,29.00
2023-02-06T08:53:15.931Z,20.17
2023-02-06T08:55:42.529Z,17.27
2023-02-06T08:58:09.081Z,18.67
2023-02-06T09:00:36.295Z,17.97
2023-02-06T09:03:02.825Z,14.37
2023-02-06T09:05:29.352Z,18.37
2023-02-06T09:07:55.906Z,15.40
2023-02-06T09:10:27.840Z,18.03
2023-02-06T09:12:55.135Z,18.80
2023-02-06T09:15:21.769Z,16.37
2023-02-06T09:17:48.286Z,15.60
2023-02-06T09:20:14.866Z,13.37
2023-02-06T09:22:41.346Z,11.57
2023-02-06T09:25:08.004Z,18.90
2023-02-06T09:27:34.650Z,14.53
2023-02-06T09:30:01.265Z,14.10
2023-02-06T09:32:27.769Z,13.33
2023-02-06T09:34:54.414Z,16.73
2023-02-06T09:37:21.553Z,13.67
2023-02-06T09:39:48.092Z,14.10
2023-02-06T09:42:27.525Z,13.33
2023-02-06T09:44:56.873Z,13.87
2023-02-06T09:47:28.050Z,12.17
2023-02-06T09:49:54.645Z,15.27
2023-02-06T09:52:24.922Z,12.23
2023-02-06T09:54:59.110Z,7.60
2023-02-06T09:57:31.641Z,13.13
2023-02-06T10:00:03.105Z,10.37
2023-02-06T10:02:32.621Z,7.10
2023-02-06T10:05:05.705Z,5.57
2023-02-06T10:07:47.484Z,7.43
2023-02-06T10:10:28.230Z,10.93
2023-02-06T10:12:59.872Z,9.13
2023-02-06T10:15:46.760Z,9.37
2023-02-06T10:18:22.459Z,8.73
2023-02-06T10:20:52.044Z,8.17
2023-02-06T10:23:21.506Z,8.80
2023-02-06T10:25:49.977Z,12.40
2023-02-06T10:28:21.439Z,14.80
2023-02-06T10:30:51.011Z,8.90
2023-02-06T10:33:40.973Z,11.50
2023-02-06T10:36:27.881Z,15.73
2023-02-06T10:38:54.492Z,13.93
2023-02-06T10:41:21.254Z,21.07
2023-02-06T10:43:56.127Z,20.97
2023-02-06T10:46:41.592Z,22.50
2023-02-06T10:49:28.006Z,24.97
2023-02-06T10:51:56.286Z,24.83
2023-02-06T10:54:33.672Z,24.37
2023-02-06T10:57:00.197Z,25.97
2023-02-06T10:59:33.608Z,20.60
2023-02-06T11:02:18.887Z,21.23
2023-02-06T11:04:56.262Z,23.57
2023-02-06T11:07:41.718Z,23.43
2023-02-06T11:10:08.393Z,18.70
2023-02-06T11:12:39.169Z,21.10
2023-02-06T11:15:32.795Z,26.20
2023-02-06T11:18:00.175Z,22.73
2023-02-06T11:20:28.393Z,25.07
2023-02-06T11:22:55.286Z,24.47
2023-02-06T11:25:23.024Z,23.43
2023-02-06T11:27:49.707Z,23.27
2023-02-06T11:30:33.622Z,22.03
2023-02-06T11:33:07.579Z,21.43
2023-02-06T11:35:35.186Z,26.90
2023-02-06T11:38:13.608Z,17.33
2023-02-06T11:40:40.140Z,22.57
2023-02-06T11:43:09.731Z,22.17
2023-02-06T11:45:36.777Z,25.43
2023-02-06T11:48:03.650Z,27.47
2023-02-06T11:50:34.219Z,25.10
2023-02-06T11:53:21.891Z,21.83
2023-02-06T11:55:57.758Z,23.73
2023-02-06T11:58:27.599Z,19.40
2023-02-06T12:00:57.022Z,21.83
2023-02-06T12:03:36.904Z,26.63
2023-02-06T12:06:03.495Z,22.57
2023-02-06T12:08:36.249Z,21.80
2023-02-06T12:11:03.409Z,24.47
2023-02-06T12:13:34.122Z,21.97
2023-02-06T12:16:02.166Z,23.07
2023-02-06T12:18:35.928Z,20.43
2023-02-06T12:21:11.935Z,22.00
2023-02-06T12:23:41.228Z,22.83
2023-02-06T12:26:09.092Z,24.47
2023-02-06T12:28:41.824Z,18.03
2023-02-06T12:31:13.312Z,20.00
2023-02-06T12:33:44.471Z,17.27
2023-02-06T12:36:31.297Z,24.90
2023-02-06T12:38:59.700Z,17.33
2023-02-06T12:41:26.209Z,22.17
2023-02-06T12:44:08.483Z,21.27
2023-02-06T12:46:35.030Z,19.20
2023-02-06T12:49:04.793Z,12.13
2023-02-06T12:51:42.144Z,11.53
2023-02-06T12:54:14.917Z,14.10
2023-02-06T12:56:46.029Z,9.47
2023-02-06T12:59:12.565Z,10.50
2023-02-06T13:01:45.784Z,12.70
2023-02-06T13:04:16.945Z,7.23
2023-02-06T13:06:48.473Z,8.83
2023-02-06T13:09:17.559Z,13.03
2023-02-06T13:11:44.189Z,8.63
2023-02-06T13:14:13.898Z,11.10
2023-02-06T13:16:44.497Z,9.83
2023-02-06T13:19:20.958Z,10.67
2023-02-06T13:21:51.198Z,8.53
2023-02-06T13:24:18.234Z,10.50
2023-02-06T13:27:00.389Z,11.80
2023-02-06T13:29:33.777Z,11.57
2023-02-06T13:32:15.013Z,11.17
2023-02-06T13:34:44.587Z,11.70
2023-02-06T13:37:26.612Z,9.70
2023-02-06T13:40:11.578Z,12.10
2023-02-06T13:42:38.100Z,11.20
2023-02-06T13:45:05.097Z,13.23
2023-02-06T13:47:46.887Z,10.00
2023-02-06T13:50:31.916Z,11.63
2023-02-06T13:53:04.028Z,12.40
2023-02-06T13:55:31.495Z,8.90
2023-02-06T13:58:18.382Z,12.07
2023-02-06T14:00:45.404Z,12.87
2023-02-06T14:03:25.807Z,9.17
2023-02-06T14:05:52.591Z,11.63
2023-02-06T14:08:37.842Z,10.50
2023-02-06T14:11:07.615Z,14.33
2023-02-06T14:13:45.054Z,10.87
2023-02-06T14:16:30.434Z,8.27
2023-02-06T14:18:56.957Z,11.00
2023-02-06T14:21:42.078Z,7.77
2023-02-06T14:24:08.689Z,13.23
2023-02-06T14:26:54.175Z,8.13
2023-02-06T14:29:23.931Z,17.73
2023-02-06T14:32:09.239Z,13.53
2023-02-06T14:34:54.286Z,11.37
2023-02-06T14:37:26.774Z,9.27
2023-02-06T14:39:57.128Z,11.70
2023-02-06T14:42:26.670Z,7.67
2023-02-06T14:44:57.634Z,12.13
2023-02-06T14:47:28.219Z,9.43
2023-02-06T14:49:55.015Z,10.37
2023-02-06T14:52:23.449Z,6.83
2023-02-06T14:54:50.079Z,9.33
2023-02-06T14:57:26.870Z,9.57
2023-02-06T14:59:53.396Z,10.67
2023-02-06T15:02:30.285Z,5.40
2023-02-06T15:04:57.014Z,11.93
2023-02-06T15:07:31.035Z,9.83
2023-02-06T15:10:02.324Z,11.37
2023-02-06T15:12:29.286Z,9.93
2023-02-06T15:14:57.785Z,12.40
2023-02-06T15:17:26.302Z,11.93
2023-02-06T15:19:52.884Z,8.77
2023-02-06T15:22:29.453Z,11.47
2023-02-06T15:25:09.302Z,18.10
2023-02-06T15:27:36.267Z,15.33
2023-02-06T15:30:04.736Z,12.37
2023-02-06T15:32:32.890Z,14.10
2023-02-06T15:34:59.864Z,12.40
2023-02-06T15:37:35.753Z,12.00
2023-02-06T15:40:18.915Z,12.97
2023-02-06T15:42:49.017Z,11.03
2023-02-06T15:45:17.891Z,13.80
2023-02-06T15:47:46.134Z,19.53
2023-02-06T15:50:16.074Z,13.27
2023-02-06T15:52:47.062Z,15.00
2023-02-06T15:55:26.038Z,10.47
2023-02-06T15:57:52.677Z,14.37
2023-02-06T16:00:23.531Z,14.13
2023-02-06T16:02:50.434Z,19.17
2023-02-06T16:05:25.513Z,14.47
2023-02-06T16:07:52.109Z,13.23
2023-02-06T16:10:25.995Z,13.10
2023-02-06T16:12:52.554Z,18.33
2023-02-06T16:15:32.353Z,15.83
2023-02-06T16:18:00.144Z,23.83
2023-02-06T16:20:40.101Z,22.90
2023-02-06T16:23:19.328Z,22.47
2023-02-06T16:26:04.520Z,34.27
2023-02-06T16:28:31.055Z,34.67
2023-02-06T16:30:58.775Z,30.50
2023-02-06T16:33:33.486Z,34.27
2023-02-06T16:36:00.225Z,36.73
2023-02-06T16:38:26.713Z,28.53
2023-02-06T16:40:53.231Z,32.40
2023-02-06T16:43:20.315Z,25.67
2023-02-06T16:45:48.029Z,25.70
2023-02-06T16:48:18.177Z,36.60
2023-02-06T16:50:45.207Z,35.23
2023-02-06T16:53:22.110Z,29.10
2023-02-06T16:55:48.894Z,30.03
2023-02-06T16:58:24.598Z,32.03
2023-02-06T17:00:51.323Z,27.87
2023-02-06T17:03:18.056Z,26.23
2023-02-06T17:05:47.900Z,26.90
2023-02-06T17:08:18.322Z,25.17
2023-02-06T17:10:45.342Z,26.90
2023-02-06T17:13:13.231Z,25.47
2023-02-06T17:15:39.784Z,25.23
2023-02-06T17:18:06.426Z,28.13
2023-02-06T17:20:37.112Z,27.07
2023-02-06T17:23:04.247Z,27.00
2023-02-06T17:25:31.295Z,32.17
2023-02-06T17:27:58.371Z,27.50
2023-02-06T17:30:26.239Z,28.37
2023-02-06T17:32:52.938Z,36.27
2023-02-06T17:40:36.669Z,35.40
2023-02-06T17:43:04.837Z,36.00
2023-02-06T17:45:31.662Z,39.07
2023-02-06T17:47:58.168Z,32.43
2023-02-06T17:50:25.219Z,38.10
2023-02-06T17:52:55.998Z,42.43
2023-02-06T17:55:23.234Z,38.43
2023-02-06T17:57:50.311Z,35.10
2023-02-06T18:00:17.538Z,39.53
2023-02-06T18:02:44.199Z,38.63
2023-02-06T18:05:10.820Z,45.37
2023-02-06T18:07:37.789Z,50.27
2023-02-06T18:10:04.722Z,54.43
2023-02-06T18:12:31.486Z,60.33
2023-02-06T18:14:58.007Z,59.17
2023-02-06T18:17:24.827Z,62.20
2023-02-06T18:19:52.261Z,56.43
2023-02-06T18:22:19.355Z,65.90
2023-02-06T18:24:46.075Z,57.90
2023-02-06T18:27:12.738Z,59.73
2023-02-06T18:29:49.491Z,58.50
2023-02-06T18:32:17.198Z,61.07
2023-02-06T18:34:43.892Z,63.77
2023-02-06T18:37:10.406Z,67.23
2023-02-06T18:39:37.258Z,83.10
2023-02-06T18:42:22.606Z,73.37
2023-02-06T18:44:49.114Z,96.00
2023-02-06T18:47:16.482Z,113.70
2023-02-06T18:49:43.270Z,110.93
2023-02-06T18:52:09.812Z,113.73
2023-02-06T18:54:36.490Z,100.53
2023-02-06T18:57:03.179Z,100.60
2023-02-06T18:59:29.728Z,92.27
2023-02-06T19:01:56.424Z,96.30
2023-02-06T19:04:23.089Z,86.90
2023-02-06T19:06:49.636Z,94.27
2023-02-06T19:09:17.466Z,112.97
2023-02-06T19:11:44.192Z,95.07
2023-02-06T19:14:11.725Z,82.17
2023-02-06T19:16:38.733Z,85.53
2023-02-06T19:19:07.851Z,92.83
2023-02-06T19:21:35.267Z,91.57
2023-02-06T19:24:02.090Z,93.80
2023-02-06T19:26:28.898Z,96.00
2023-02-06T19:28:55.522Z,91.03
2023-02-06T19:31:25.048Z,97.13
2023-02-06T19:33:52.803Z,90.87
2023-02-06T19:36:21.181Z,89.17
2023-02-06T19:38:48.283Z,97.33
2023-02-06T19:41:15.786Z,92.67
2023-02-06T19:43:42.721Z,94.97
2023-02-06T19:46:11.968Z,98.07
2023-02-06T19:48:38.861Z,122.53
2023-02-06T19:51:06.075Z,136.23
2023-02-06T19:53:34.539Z,136.23
2023-02-06T19:56:01.586Z,169.17
2023-02-06T19:58:31.048Z,174.70
2023-02-06T20:00:58.101Z,188.73
2023-02-06T20:03:24.759Z,183.77
2023-02-06T20:05:51.330Z,170.50
2023-02-06T20:08:17.969Z,181.70
2023-02-06T20:10:45.329Z,183.67
2023-02-06T20:13:12.415Z,142.50
2023-02-06T20:15:39.125Z,115.87
2023-02-06T20:18:05.785Z,116.23
2023-02-06T20:20:35.826Z,111.93
2023-02-06T20:23:02.518Z,118.83
2023-02-06T20:25:29.092Z,138.33
2023-02-06T20:27:55.828Z,155.13
2023-02-06T20:30:24.380Z,160.27
2023-02-06T20:32:50.963Z,142.93
2023-02-06T20:35:17.522Z,135.27
2023-02-06T20:37:44.133Z,153.20
2023-02-06T20:40:10.892Z,147.17
2023-02-06T20:42:42.212Z,168.50
2023-02-06T20:45:08.762Z,295.27
2023-02-06T20:47:35.305Z,217.77
2023-02-06T20:50:01.960Z,209.80
2023-02-06T20:52:29.727Z,173.47
2023-02-06T20:54:56.516Z,177.93
2023-02-06T20:57:23.127Z,214.40
2023-02-06T20:59:49.701Z,220.03
2023-02-06T21:02:16.286Z,222.17
2023-02-06T21:04:42.824Z,224.87
2023-02-06T21:07:09.355Z,186.80
2023-02-06T21:09:36.621Z,172.83
2023-02-06T21:12:03.229Z,172.27
2023-02-06T21:14:30.192Z,176.73
2023-02-06T21:16:56.929Z,171.37
2023-02-06T21:19:24.996Z,159.97
2023-02-06T21:21:51.515Z,164.13
2023-02-06T21:24:18.079Z,152.03
2023-02-06T21:26:44.625Z,148.17
2023-02-06T21:29:11.645Z,148.70
2023-02-06T21:31:38.940Z,136.73
2023-02-06T21:34:25.660Z,124.67
2023-02-06T21:36:53.413Z,126.03
2023-02-06T21:39:21.102Z,133.47
2023-02-06T21:41:47.943Z,128.23
2023-02-06T21:44:14.558Z,119.83
2023-02-06T21:46:41.147Z,116.77
2023-02-06T21:49:09.327Z,127.87
2023-02-06T21:51:37.323Z,135.23
2023-02-06T21:54:04.110Z,127.20
2023-02-06T21:56:30.740Z,154.47
2023-02-06T21:58:57.636Z,130.47
2023-02-06T22:01:25.410Z,136.00
2023-02-06T22:03:52.166Z,130.47
2023-02-06T22:06:20.192Z,184.57
2023-02-06T22:08:48.344Z,181.93
2023-02-06T22:11:15.737Z,184.97
2023-02-06T22:13:42.885Z,150.77
2023-02-06T22:16:09.942Z,146.57
2023-02-06T22:18:36.648Z,143.10
2023-02-06T22:21:10.549Z,135.80
2023-02-06T22:23:37.171Z,133.57
2023-02-06T22:26:03.754Z,127.87
2023-02-06T22:28:31.012Z,116.20
2023-02-06T22:31:04.043Z,132.73
2023-02-06T22:33:30.727Z,135.97
2023-02-06T22:35:57.214Z,119.17
2023-02-06T22:38:23.737Z,125.47
2023-02-06T22:41:03.291Z,134.87
2023-02-06T22:43:30.234Z,135.23
2023-02-06T22:45:56.743Z,135.50
2023-02-06T22:48:23.722Z,133.30
2023-02-06T22:50:50.267Z,132.97
2023-02-06T22:53:32.112Z,147.10
2023-02-06T22:56:17.748Z,191.13
2023-02-06T22:58:45.048Z,204.77
2023-02-06T23:01:11.735Z,204.17
2023-02-06T23:03:38.389Z,160.53
2023-02-06T23:06:05.543Z,140.20
2023-02-06T23:08:32.255Z,128.37
2023-02-06T23:10:59.168Z,124.60
2023-02-06T23:13:25.927Z,126.63
2023-02-06T23:15:54.667Z,127.10
2023-02-06T23:18:21.222Z,121.17
2023-02-06T23:20:53.189Z,116.33
2023-02-06T23:23:19.701Z,122.43
2023-02-06T23:25:48.409Z,122.27
2023-02-06T23:28:14.939Z,130.07
2023-02-06T23:30:41.524Z,130.67
2023-02-06T23:33:08.063Z,125.10
2023-02-06T23:35:38.449Z,123.27
2023-02-06T23:38:05.122Z,135.47
2023-02-06T23:40:31.826Z,128.50
2023-02-06T23:42:58.470Z,124.77
2023-02-06T23:45:25.433Z,125.80
2023-02-06T23:47:52.213Z,141.60
2023-02-06T23:50:18.864Z,132.47
2023-02-06T23:52:45.515Z,126.27
2023-02-06T23:55:12.480Z,148.20
2023-02-06T23:57:39.151Z,140.00
